AAL2768 KORD-KSEA
Flight info
| Callsign | AAL2768 |
|---|---|
| Flight time | N/A |
| Altitude | 36000 |
| Route | MYKIE MONNY IANNA FSD DPR LWT MLP GLASR3 |
| Aircraft | B38M/M-SDE1FGHILORVWXY/HB1 |
Departure
| Time | 2026-05-05 02:08 |
|---|---|
| Airport | Chicago O'Hare International Airport (KORD) |
Arrival
| Time | N/A |
|---|---|
| Airport | Seattle–Tacoma International Airport (KSEA) |
| Time | Latitude | Longitude | Altitude | Speed | Heading |
|---|---|---|---|---|---|
| 2026-05-05 01:30 | 41.97266 | -87.90096 | 671 ft | 0 kts | 58° |
| 2026-05-05 01:56 | 41.97265 | -87.90098 | 671 ft | 2 kts | 58° |
| 2026-05-05 01:56 | 41.97255 | -87.90120 | 671 ft | 4 kts | 65° |
| 2026-05-05 01:57 | 41.97252 | -87.90145 | 671 ft | 4 kts | 122° |
| 2026-05-05 01:57 | 41.97269 | -87.90159 | 671 ft | 4 kts | 173° |
| 2026-05-05 01:57 | 41.97293 | -87.90160 | 671 ft | 4 kts | 180° |
| 2026-05-05 01:57 | 41.97301 | -87.90160 | 671 ft | 1 kts | 180° |
| 2026-05-05 02:01 | 41.97297 | -87.90160 | 671 ft | 1 kts | 180° |
| 2026-05-05 02:02 | 41.97286 | -87.90160 | 671 ft | 2 kts | 180° |
| 2026-05-05 02:02 | 41.97268 | -87.90160 | 671 ft | 3 kts | 180° |
| 2026-05-05 02:02 | 41.97237 | -87.90160 | 671 ft | 7 kts | 177° |
| 2026-05-05 02:02 | 41.97202 | -87.90111 | 671 ft | 11 kts | 93° |
| 2026-05-05 02:03 | 41.97206 | -87.89993 | 670 ft | 16 kts | 90° |
| 2026-05-05 02:03 | 41.97221 | -87.89855 | 670 ft | 17 kts | 62° |
| 2026-05-05 02:03 | 41.97278 | -87.89728 | 671 ft | 18 kts | 60° |
| 2026-05-05 02:03 | 41.97292 | -87.89601 | 671 ft | 15 kts | 137° |
| 2026-05-05 02:04 | 41.97215 | -87.89520 | 671 ft | 16 kts | 133° |
| 2026-05-05 02:04 | 41.97195 | -87.89395 | 671 ft | 16 kts | 86° |
| 2026-05-05 02:04 | 41.97196 | -87.89265 | 671 ft | 17 kts | 90° |
| 2026-05-05 02:04 | 41.97195 | -87.89126 | 671 ft | 17 kts | 91° |
| 2026-05-05 02:05 | 41.97197 | -87.88976 | 671 ft | 18 kts | 89° |
| 2026-05-05 02:05 | 41.97196 | -87.88822 | 671 ft | 18 kts | 92° |
| 2026-05-05 02:05 | 41.97196 | -87.88664 | 671 ft | 19 kts | 90° |
| 2026-05-05 02:05 | 41.97196 | -87.88500 | 671 ft | 20 kts | 90° |
| 2026-05-05 02:06 | 41.97197 | -87.88333 | 672 ft | 20 kts | 90° |
| 2026-05-05 02:06 | 41.97197 | -87.88157 | 672 ft | 21 kts | 90° |
| 2026-05-05 02:06 | 41.97167 | -87.88038 | 670 ft | 13 kts | 163° |
| 2026-05-05 02:06 | 41.97088 | -87.88032 | 669 ft | 11 kts | 179° |
| 2026-05-05 02:07 | 41.97017 | -87.88032 | 674 ft | 11 kts | 181° |
| 2026-05-05 02:07 | 41.96952 | -87.88037 | 674 ft | 9 kts | 195° |
| 2026-05-05 02:07 | 41.96917 | -87.88067 | 673 ft | 0 kts | 221° |
| 2026-05-05 02:07 | 41.96894 | -87.88094 | 674 ft | 21 kts | 221° |
| 2026-05-05 02:08 | 41.96628 | -87.88409 | 671 ft | 88 kts | 221° |
| 2026-05-05 02:08 | 41.96065 | -87.89076 | 669 ft | 144 kts | 221° |
| 2026-05-05 02:08 | 41.95285 | -87.90015 | 869 ft | 172 kts | 222° |
| 2026-05-05 02:08 | 41.94454 | -87.90986 | 1521 ft | 175 kts | 222° |
| 2026-05-05 02:09 | 41.93933 | -87.92215 | 2246 ft | 175 kts | 263° |
| 2026-05-05 02:09 | 41.94245 | -87.93684 | 2821 ft | 192 kts | 302° |
| 2026-05-05 02:09 | 41.95257 | -87.94783 | 3311 ft | 216 kts | 324° |
| 2026-05-05 02:09 | 41.96406 | -87.95858 | 3829 ft | 218 kts | 306° |
| 2026-05-05 02:10 | 41.97110 | -87.97493 | 4531 ft | 221 kts | 290° |
| 2026-05-05 02:10 | 41.97613 | -87.99278 | 5296 ft | 229 kts | 290° |
| 2026-05-05 02:10 | 41.98124 | -88.01171 | 5840 ft | 243 kts | 288° |
| 2026-05-05 02:10 | 41.98641 | -88.03206 | 6459 ft | 254 kts | 286° |
| 2026-05-05 02:11 | 41.99159 | -88.05325 | 7167 ft | 262 kts | 285° |
| 2026-05-05 02:11 | 41.99676 | -88.07489 | 7921 ft | 266 kts | 284° |
| 2026-05-05 02:11 | 42.00193 | -88.09684 | 8683 ft | 270 kts | 284° |
| 2026-05-05 02:11 | 42.00715 | -88.11921 | 9429 ft | 274 kts | 283° |
| 2026-05-05 02:12 | 42.01283 | -88.14378 | 10248 ft | 277 kts | 283° |
| 2026-05-05 02:12 | 42.02487 | -88.19624 | 11010 ft | 309 kts | 283° |
| 2026-05-05 02:12 | 42.03131 | -88.22429 | 11441 ft | 321 kts | 283° |
| 2026-05-05 02:13 | 42.03741 | -88.25101 | 11872 ft | 331 kts | 283° |
| 2026-05-05 02:13 | 42.04429 | -88.28099 | 12406 ft | 337 kts | 283° |
| 2026-05-05 02:13 | 42.05120 | -88.31126 | 13023 ft | 341 kts | 283° |
| 2026-05-05 02:13 | 42.05815 | -88.34179 | 13712 ft | 341 kts | 283° |
| 2026-05-05 02:14 | 42.06513 | -88.37250 | 14293 ft | 345 kts | 283° |
| 2026-05-05 02:14 | 42.07215 | -88.40340 | 14915 ft | 346 kts | 283° |
| 2026-05-05 02:14 | 42.07920 | -88.43446 | 15477 ft | 348 kts | 283° |
| 2026-05-05 02:14 | 42.08627 | -88.46568 | 16046 ft | 350 kts | 283° |
| 2026-05-05 02:15 | 42.09340 | -88.49719 | 16589 ft | 352 kts | 282° |
| 2026-05-05 02:15 | 42.10052 | -88.52876 | 17120 ft | 354 kts | 283° |
| 2026-05-05 02:15 | 42.10771 | -88.56061 | 17610 ft | 356 kts | 283° |
| 2026-05-05 02:15 | 42.11494 | -88.59270 | 18092 ft | 359 kts | 283° |
| 2026-05-05 02:16 | 42.12219 | -88.62490 | 18580 ft | 360 kts | 283° |
| 2026-05-05 02:16 | 42.12944 | -88.65722 | 19003 ft | 363 kts | 283° |
| 2026-05-05 02:16 | 42.13677 | -88.68991 | 19412 ft | 365 kts | 283° |
| 2026-05-05 02:16 | 42.14404 | -88.72237 | 19832 ft | 367 kts | 283° |
| 2026-05-05 02:17 | 42.15144 | -88.75542 | 20226 ft | 370 kts | 283° |
| 2026-05-05 02:17 | 42.15887 | -88.78880 | 20622 ft | 372 kts | 282° |
| 2026-05-05 02:17 | 42.16204 | -88.82318 | 20982 ft | 369 kts | 266° |
| 2026-05-05 02:17 | 42.16149 | -88.85786 | 21326 ft | 372 kts | 268° |
| 2026-05-05 02:18 | 42.16097 | -88.89287 | 21671 ft | 375 kts | 267° |
| 2026-05-05 02:18 | 42.16029 | -88.92804 | 22027 ft | 377 kts | 267° |
| 2026-05-05 02:18 | 42.15950 | -88.96346 | 22388 ft | 378 kts | 267° |
| 2026-05-05 02:18 | 42.15864 | -88.99899 | 22732 ft | 380 kts | 267° |
| 2026-05-05 02:19 | 42.15775 | -89.03465 | 23054 ft | 382 kts | 267° |
| 2026-05-05 02:19 | 42.15684 | -89.07056 | 23383 ft | 384 kts | 267° |
| 2026-05-05 02:19 | 42.15591 | -89.10665 | 23701 ft | 386 kts | 267° |
| 2026-05-05 02:19 | 42.15496 | -89.14295 | 24012 ft | 388 kts | 267° |
| 2026-05-05 02:20 | 42.15400 | -89.17944 | 24306 ft | 390 kts | 267° |
| 2026-05-05 02:20 | 42.15302 | -89.21607 | 24607 ft | 392 kts | 267° |
| 2026-05-05 02:20 | 42.15203 | -89.25294 | 24896 ft | 394 kts | 267° |
| 2026-05-05 02:20 | 42.15101 | -89.28997 | 25162 ft | 397 kts | 267° |
| 2026-05-05 02:21 | 42.14999 | -89.32723 | 25428 ft | 399 kts | 267° |
| 2026-05-05 02:21 | 42.14894 | -89.36424 | 25680 ft | 401 kts | 267° |
| 2026-05-05 02:21 | 42.14787 | -89.40238 | 25943 ft | 403 kts | 267° |
| 2026-05-05 02:21 | 42.14678 | -89.44026 | 26186 ft | 406 kts | 267° |
| 2026-05-05 02:22 | 42.14569 | -89.47789 | 26420 ft | 408 kts | 267° |
| 2026-05-05 02:22 | 42.14457 | -89.51614 | 26660 ft | 410 kts | 267° |
| 2026-05-05 02:22 | 42.14343 | -89.55472 | 26881 ft | 412 kts | 267° |
| 2026-05-05 02:22 | 42.14226 | -89.59344 | 27091 ft | 414 kts | 267° |
| 2026-05-05 02:23 | 42.14108 | -89.63237 | 27309 ft | 416 kts | 266° |
| 2026-05-05 02:23 | 42.13988 | -89.67142 | 27507 ft | 419 kts | 266° |
| 2026-05-05 02:23 | 42.13866 | -89.71087 | 27709 ft | 421 kts | 266° |
| 2026-05-05 02:23 | 42.13742 | -89.75038 | 27937 ft | 423 kts | 266° |
| 2026-05-05 02:24 | 42.13616 | -89.79006 | 28092 ft | 426 kts | 266° |
| 2026-05-05 02:24 | 42.13488 | -89.82992 | 28299 ft | 427 kts | 266° |
| 2026-05-05 02:24 | 42.13360 | -89.86959 | 28487 ft | 429 kts | 266° |
| 2026-05-05 02:24 | 42.13228 | -89.90980 | 28673 ft | 431 kts | 266° |
| 2026-05-05 02:25 | 42.13095 | -89.95023 | 28858 ft | 433 kts | 266° |
| 2026-05-05 02:25 | 42.12958 | -89.99093 | 29033 ft | 435 kts | 266° |
| 2026-05-05 02:25 | 42.12821 | -90.03167 | 29209 ft | 436 kts | 266° |
| 2026-05-05 02:25 | 42.12681 | -90.07261 | 29405 ft | 437 kts | 266° |
| 2026-05-05 02:26 | 42.12539 | -90.11362 | 29674 ft | 437 kts | 266° |
| 2026-05-05 02:26 | 42.12397 | -90.15436 | 29932 ft | 436 kts | 266° |
| 2026-05-05 02:26 | 42.12254 | -90.19516 | 30148 ft | 436 kts | 266° |
| 2026-05-05 02:26 | 42.12108 | -90.23604 | 30388 ft | 436 kts | 266° |
| 2026-05-05 02:27 | 42.11961 | -90.27691 | 30607 ft | 436 kts | 266° |
| 2026-05-05 02:27 | 42.11814 | -90.31762 | 30850 ft | 435 kts | 266° |
| 2026-05-05 02:27 | 42.11664 | -90.35842 | 31072 ft | 435 kts | 266° |
| 2026-05-05 02:27 | 42.11513 | -90.39917 | 31299 ft | 435 kts | 266° |
| 2026-05-05 02:28 | 42.11362 | -90.43973 | 31539 ft | 434 kts | 266° |
| 2026-05-05 02:28 | 42.11209 | -90.48028 | 31763 ft | 433 kts | 265° |
| 2026-05-05 02:28 | 42.11055 | -90.52080 | 31975 ft | 433 kts | 265° |
| 2026-05-05 02:28 | 42.10899 | -90.56122 | 32216 ft | 431 kts | 265° |
| 2026-05-05 02:29 | 42.10743 | -90.60147 | 32439 ft | 430 kts | 265° |
| 2026-05-05 02:29 | 42.10586 | -90.64169 | 32660 ft | 429 kts | 265° |
| 2026-05-05 02:29 | 42.10430 | -90.68121 | 32882 ft | 428 kts | 265° |
| 2026-05-05 02:29 | 42.10271 | -90.72109 | 33093 ft | 427 kts | 265° |
| 2026-05-05 02:30 | 42.10111 | -90.76099 | 33267 ft | 426 kts | 265° |
| 2026-05-05 02:30 | 42.09949 | -90.80082 | 33457 ft | 425 kts | 265° |
| 2026-05-05 02:30 | 42.09787 | -90.84059 | 33693 ft | 423 kts | 265° |
| 2026-05-05 02:30 | 42.09624 | -90.88003 | 33881 ft | 422 kts | 265° |
| 2026-05-05 02:31 | 42.09460 | -90.91963 | 34038 ft | 422 kts | 265° |
| 2026-05-05 02:31 | 42.09295 | -90.95897 | 34238 ft | 420 kts | 265° |
| 2026-05-05 02:31 | 42.09130 | -90.99814 | 34414 ft | 419 kts | 265° |
| 2026-05-05 02:31 | 42.09020 | -91.02408 | 34558 ft | 417 kts | 265° |
| 2026-05-05 02:32 | 42.08853 | -91.06299 | 34759 ft | 416 kts | 265° |
| 2026-05-05 02:32 | 42.08687 | -91.10190 | 34931 ft | 415 kts | 265° |
| 2026-05-05 02:32 | 42.08463 | -91.15359 | 35171 ft | 413 kts | 265° |
| 2026-05-05 02:32 | 42.08352 | -91.17912 | 35278 ft | 412 kts | 265° |
| 2026-05-05 02:33 | 42.08184 | -91.21750 | 35420 ft | 411 kts | 265° |
| 2026-05-05 02:33 | 42.08028 | -91.25596 | 35560 ft | 410 kts | 268° |
| 2026-05-05 02:33 | 42.08385 | -91.29391 | 35670 ft | 413 kts | 283° |
| 2026-05-05 02:34 | 42.10090 | -91.36795 | 35705 ft | 414 kts | 284° |
| 2026-05-05 02:34 | 42.11853 | -91.44145 | 35708 ft | 414 kts | 284° |
| 2026-05-05 02:35 | 42.13653 | -91.51515 | 35720 ft | 415 kts | 284° |
| 2026-05-05 02:35 | 42.15458 | -91.58902 | 35720 ft | 415 kts | 284° |
| 2026-05-05 02:36 | 42.17258 | -91.66292 | 35727 ft | 415 kts | 284° |
| 2026-05-05 02:36 | 42.19056 | -91.73698 | 35719 ft | 416 kts | 284° |
| 2026-05-05 02:37 | 42.20853 | -91.81123 | 35728 ft | 416 kts | 284° |
| 2026-05-05 02:37 | 42.22643 | -91.88543 | 35735 ft | 416 kts | 284° |
| 2026-05-05 02:38 | 42.24418 | -91.95929 | 35738 ft | 416 kts | 284° |